Darrouzett, TX (79024)

4:29 PM CDT on August 23, 2016 (GMT -0500)
Darrouzett - South Elm St. | | Change Station

Elev 2579 ft 36.44 °N, 100.33 °W | Updated 2 seconds ago

Scattered Clouds
Scattered Clouds
96.3 °F
Feels Like 96 °F
N
3.6
Wind Variable Wind from SW
Gusts 4.9 mph

Today
High -- | Low -- °F
--% Chance of Precip.
Yesterday
High -- | Low -- °F
Precip. -- in
Pressure 29.91 in
Visibility 10.0 miles
Clouds Scattered Clouds 11000 ft
Heat Index 96 °F
Dew Point 58 °F
Humidity 28%
Rainfall 0.00 in
Snow Depth Not available.
7:05 AM 8:20 PM
Waning Gibbous, 64% visible
METAR KPYX 232115Z AUTO 23020G28KT 10SM SCT110 36/10 A2991 RMK AO2 T03600104
Pressure 29.91 in
Visibility 10.0 miles
Clouds Scattered Clouds 11000 ft
Heat Index 96 °F
Dew Point 58 °F
Humidity 28%
Rainfall 0.00 in
Snow Depth Not available.
7:05 AM 8:20 PM
Waning Gibbous, 64% visible
METAR KPYX 232115Z AUTO 23020G28KT 10SM SCT110 36/10 A2991 RMK AO2 T03600104

10-Day Weather Forecast

Almanac

Astronomy

Aug. 23, 2016 Rise Set
Actual Time
Civil Twilight
Nautical Twilight
Astronomical Twilight
Moon
Length of Visible Light
Length of Day
Tomorrow will be .
, % of the Moon is Illuminated

Today's Extremes

State Highs State Lows

Community

WunderPhotos

Upload Photos

1,934,464 photos uploaded!

WunderBlog® & News

Nearby

Air Quality

  Air Quality AQ Index Pollutant
Not available.

Snow Depth

Station Depth Elevation

Earthquake Activity

City Distance Mag. Time & Date
Minimum magnitude displayed is 2.5.

Coastal Water Temperatures

Place Temperature

Stations

Nearby Weather Stations

Station Location Temp. Windchill Dew Point Humidity Wind Precip. Elev Updated Type
                   

Watches & Warnings

There are currently no watches in effect.